Back to Top

Language: 

My Weather Underground Personal Weather Station Historical Data with Graphs...

Delerius Weather Station Historical Data
Daily Summary for January 11, 2018 Units:  Both    English   Metric
« Previous Day
Next Day »
Daily Weekly Monthly Yearly Custom
  High: Low: Average:
Temperature: 45.7 °F /  7.6 °C 40.8 °F /  4.9 °C 43 °F /  6.1 °C
Dew Point: 42.5 °F /  5.8 °C 38.9 °F /  3.8 °C 40.8 °F /  4.9 °C
Humidity: 96 % 85 % 92 %
Wind Speed: 8.0 mph /  12.9 km/h - 1.9 mph /  3.1 km/h
Wind Gust: 12.0 mph /  19.3 km/h - -
Wind:- - WNW
Pressure: 30.31 in /  1026.3 hPa 29.84 in /  1010.4 hPa -
Precipitation: 0.01 in /  0.25 mm    
Historical Graphs
 
 
Tabular Data for January 11, 2018
Time Temperature Dew Point Pressure Wind Wind Speed Wind Gust Humidity Rainfall Rate (Hourly) solar Conditions
00:18 41.4 °F /  5.2 °C 39.5 °F /  4.2 °C 29.84 in /  1010.4 hPa WNW 3.0 mph /  4.8 km/h 6.0 mph /  9.7 km/h 93 % 0.00 in /  0 mm 0 W/m2
00:23 41.4 °F /  5.2 °C 39.5 °F /  4.2 °C 29.84 in /  1010.4 hPa NW 1.0 mph /  1.6 km/h 4.0 mph /  6.4 km/h 93 % 0.00 in /  0 mm 0 W/m2
00:52 41.4 °F /  5.2 °C 39.5 °F /  4.2 °C 29.85 in /  1010.7 hPa Calm   1.0 mph /  1.6 km/h 93 % 0.00 in /  0 mm 0 W/m2
01:04 41.4 °F /  5.2 °C 39.5 °F /  4.2 °C 29.85 in /  1010.7 hPa NNW 3.0 mph /  4.8 km/h 7.0 mph /  11.3 km/h 93 % 0.00 in /  0 mm 0 W/m2
01:06 41.4 °F /  5.2 °C 39.5 °F /  4.2 °C 29.85 in /  1010.7 hPa NNW 2.0 mph /  3.2 km/h 6.0 mph /  9.7 km/h 93 % 0.00 in /  0 mm 0 W/m2
01:07 41.4 °F /  5.2 °C 39.5 °F /  4.2 °C 29.85 in /  1010.7 hPa NNW 2.0 mph /  3.2 km/h 6.0 mph /  9.7 km/h 93 % 0.00 in /  0 mm 0 W/m2
01:08 41.4 °F /  5.2 °C 39.5 °F /  4.2 °C 29.85 in /  1010.7 hPa NNW 1.0 mph /  1.6 km/h 4.0 mph /  6.4 km/h 93 % 0.00 in /  0 mm 0 W/m2
01:10 41.4 °F /  5.2 °C 39.5 °F /  4.2 °C 29.85 in /  1010.7 hPa NNW 1.0 mph /  1.6 km/h 4.0 mph /  6.4 km/h 93 % 0.00 in /  0 mm 0 W/m2
01:14 41.4 °F /  5.2 °C 39.5 °F /  4.2 °C 29.85 in /  1010.7 hPa NNW 3.0 mph /  4.8 km/h 7.0 mph /  11.3 km/h 93 % 0.00 in /  0 mm 0 W/m2
01:23 41.4 °F /  5.2 °C 39.5 °F /  4.2 °C 29.86 in /  1011.1 hPa NW 2.0 mph /  3.2 km/h 5.0 mph /  8 km/h 93 % 0.00 in /  0 mm 0 W/m2
01:28 41.4 °F /  5.2 °C 39.5 °F /  4.2 °C 29.86 in /  1011.1 hPa NW 1.0 mph /  1.6 km/h 3.0 mph /  4.8 km/h 93 % 0.00 in /  0 mm 0 W/m2
01:39 41.4 °F /  5.2 °C 39.5 °F /  4.2 °C 29.86 in /  1011.1 hPa NW 1.0 mph /  1.6 km/h 3.0 mph /  4.8 km/h 93 % 0.00 in /  0 mm 0 W/m2
01:48 41.4 °F /  5.2 °C 39.5 °F /  4.2 °C 29.87 in /  1011.4 hPa Calm   4.0 mph /  6.4 km/h 93 % 0.00 in /  0 mm 0 W/m2
02:03 41.4 °F /  5.2 °C 39.5 °F /  4.2 °C 29.87 in /  1011.4 hPa NW 2.0 mph /  3.2 km/h 6.0 mph /  9.7 km/h 93 % 0.00 in /  0 mm 0 W/m2
02:08 41.4 °F /  5.2 °C 39.5 °F /  4.2 °C 29.87 in /  1011.4 hPa NW 2.0 mph /  3.2 km/h 6.0 mph /  9.7 km/h 93 % 0.00 in /  0 mm 0 W/m2
02:17 41.4 °F /  5.2 °C 39.5 °F /  4.2 °C 29.88 in /  1011.7 hPa NW 2.0 mph /  3.2 km/h 5.0 mph /  8 km/h 93 % 0.00 in /  0 mm 0 W/m2
02:23 41.4 °F /  5.2 °C 39.5 °F /  4.2 °C 29.88 in /  1011.7 hPa NW 2.0 mph /  3.2 km/h 5.0 mph /  8 km/h 93 % 0.00 in /  0 mm 0 W/m2
02:25 41.4 °F /  5.2 °C 39.5 °F /  4.2 °C 29.89 in /  1012.1 hPa NW 2.0 mph /  3.2 km/h 6.0 mph /  9.7 km/h 93 % 0.00 in /  0 mm 0 W/m2
02:35 41.4 °F /  5.2 °C 39.5 °F /  4.2 °C 29.89 in /  1012.1 hPa NW 2.0 mph /  3.2 km/h 7.0 mph /  11.3 km/h 93 % 0.00 in /  0 mm 0 W/m2
02:40 41.4 °F /  5.2 °C 39.5 °F /  4.2 °C 29.89 in /  1012.1 hPa NW 1.0 mph /  1.6 km/h 4.0 mph /  6.4 km/h 93 % 0.00 in /  0 mm 0 W/m2
02:49 41.4 °F /  5.2 °C 39.5 °F /  4.2 °C 29.89 in /  1012.1 hPa NW 2.0 mph /  3.2 km/h 5.0 mph /  8 km/h 93 % 0.00 in /  0 mm 0 W/m2
02:57 41.4 °F /  5.2 °C 39.5 °F /  4.2 °C 29.90 in /  1012.4 hPa Calm   2.0 mph /  3.2 km/h 93 % 0.00 in /  0 mm 0 W/m2
03:09 41.4 °F /  5.2 °C 39.5 °F /  4.2 °C 29.90 in /  1012.4 hPa NW 2.0 mph /  3.2 km/h 5.0 mph /  8 km/h 93 % 0.00 in /  0 mm 0 W/m2
03:18 41.4 °F /  5.2 °C 39.5 °F /  4.2 °C 29.90 in /  1012.4 hPa Calm     93 % 0.00 in /  0 mm 0 W/m2
03:31 41.4 °F /  5.2 °C 39.5 °F /  4.2 °C 29.91 in /  1012.8 hPa Calm   2.0 mph /  3.2 km/h 93 % 0.00 in /  0 mm 0 W/m2
03:36 41.4 °F /  5.2 °C 39.5 °F /  4.2 °C 29.91 in /  1012.8 hPa Calm   1.0 mph /  1.6 km/h 93 % 0.00 in /  0 mm 0 W/m2
03:41 41.4 °F /  5.2 °C 39.5 °F /  4.2 °C 29.91 in /  1012.8 hPa NW 2.0 mph /  3.2 km/h 6.0 mph /  9.7 km/h 93 % 0.00 in /  0 mm 0 W/m2
03:46 41.4 °F /  5.2 °C 39.5 °F /  4.2 °C 29.91 in /  1012.8 hPa WNW 1.0 mph /  1.6 km/h 4.0 mph /  6.4 km/h 93 % 0.00 in /  0 mm 0 W/m2
03:55 41.4 °F /  5.2 °C 39.5 °F /  4.2 °C 29.91 in /  1012.8 hPa WNW 1.0 mph /  1.6 km/h 2.0 mph /  3.2 km/h 93 % 0.00 in /  0 mm 0 W/m2
04:06 41.4 °F /  5.2 °C 39.5 °F /  4.2 °C 29.92 in /  1013.1 hPa WNW 1.0 mph /  1.6 km/h 2.0 mph /  3.2 km/h 93 % 0.00 in /  0 mm 0 W/m2
04:11 41.4 °F /  5.2 °C 39.5 °F /  4.2 °C 29.92 in /  1013.1 hPa WNW 1.0 mph /  1.6 km/h 2.0 mph /  3.2 km/h 93 % 0.00 in /  0 mm 0 W/m2
04:16 41.4 °F /  5.2 °C 39.5 °F /  4.2 °C 29.92 in /  1013.1 hPa Calm   1.0 mph /  1.6 km/h 93 % 0.00 in /  0 mm 0 W/m2
04:25 41.4 °F /  5.2 °C 39.5 °F /  4.2 °C 29.93 in /  1013.4 hPa Calm   1.0 mph /  1.6 km/h 93 % 0.00 in /  0 mm 0 W/m2
04:33 41.2 °F /  5.1 °C 39.3 °F /  4.1 °C 29.93 in /  1013.4 hPa WNW 1.0 mph /  1.6 km/h 2.0 mph /  3.2 km/h 93 % 0.00 in /  0 mm 0 W/m2
04:38 41.2 °F /  5.1 °C 39.3 °F /  4.1 °C 29.94 in /  1013.8 hPa Calm     93 % 0.00 in /  0 mm 0 W/m2
04:43 41.2 °F /  5.1 °C 39.3 °F /  4.1 °C 29.94 in /  1013.8 hPa Calm     93 % 0.00 in /  0 mm 0 W/m2
04:50 41.2 °F /  5.1 °C 39.3 °F /  4.1 °C 29.94 in /  1013.8 hPa WNW 1.0 mph /  1.6 km/h 3.0 mph /  4.8 km/h 93 % 0.00 in /  0 mm 0 W/m2
04:58 41.2 °F /  5.1 °C 39.3 °F /  4.1 °C 29.94 in /  1013.8 hPa WNW 1.0 mph /  1.6 km/h 4.0 mph /  6.4 km/h 93 % 0.00 in /  0 mm 0 W/m2
05:13 41.2 °F /  5.1 °C 39.3 °F /  4.1 °C 29.95 in /  1014.1 hPa Calm     93 % 0.00 in /  0 mm 0 W/m2
05:39 41.2 °F /  5.1 °C 39.3 °F /  4.1 °C 29.97 in /  1014.8 hPa Calm     93 % 0.00 in /  0 mm 0 W/m2
05:44 41.0 °F /  5 °C 39.1 °F /  3.9 °C 29.97 in /  1014.8 hPa Calm     93 % 0.00 in /  0 mm 0 W/m2
05:49 41.0 °F /  5 °C 38.9 °F /  3.8 °C 29.97 in /  1014.8 hPa Calm     92 % 0.00 in /  0 mm 0 W/m2
05:56 41.0 °F /  5 °C 39.1 °F /  3.9 °C 29.98 in /  1015.1 hPa Calm     93 % 0.00 in /  0 mm 0 W/m2
06:06 40.8 °F /  4.9 °C 39.0 °F /  3.9 °C 29.98 in /  1015.1 hPa Calm     93 % 0.00 in /  0 mm 0 W/m2
06:11 41.0 °F /  5 °C 39.1 °F /  3.9 °C 29.99 in /  1015.5 hPa Calm   3.0 mph /  4.8 km/h 93 % 0.00 in /  0 mm 0 W/m2
06:16 41.0 °F /  5 °C 39.1 °F /  3.9 °C 29.99 in /  1015.5 hPa NW 1.0 mph /  1.6 km/h 4.0 mph /  6.4 km/h 93 % 0.00 in /  0 mm 0 W/m2
06:24 41.2 °F /  5.1 °C 39.3 °F /  4.1 °C 30.00 in /  1015.8 hPa NNW 1.0 mph /  1.6 km/h 4.0 mph /  6.4 km/h 93 % 0.00 in /  0 mm 0 W/m2
06:30 41.4 °F /  5.2 °C 39.5 °F /  4.2 °C 30.00 in /  1015.8 hPa NNW 3.0 mph /  4.8 km/h 7.0 mph /  11.3 km/h 93 % 0.00 in /  0 mm 0 W/m2
06:36 41.5 °F /  5.3 °C 39.7 °F /  4.3 °C 30.00 in /  1015.8 hPa Calm   1.0 mph /  1.6 km/h 93 % 0.00 in /  0 mm 0 W/m2
06:41 41.5 °F /  5.3 °C 39.7 °F /  4.3 °C 30.00 in /  1015.8 hPa Calm   2.0 mph /  3.2 km/h 93 % 0.00 in /  0 mm 0 W/m2
06:50 41.5 °F /  5.3 °C 39.7 °F /  4.3 °C 30.01 in /  1016.1 hPa NNW 2.0 mph /  3.2 km/h 5.0 mph /  8 km/h 93 % 0.00 in /  0 mm 0 W/m2
07:08 41.7 °F /  5.4 °C 39.8 °F /  4.3 °C 30.02 in /  1016.5 hPa NNW 1.0 mph /  1.6 km/h 3.0 mph /  4.8 km/h 93 % 0.00 in /  0 mm 0 W/m2
07:16 41.9 °F /  5.5 °C 39.7 °F /  4.3 °C 30.02 in /  1016.5 hPa NNW 1.0 mph /  1.6 km/h 3.0 mph /  4.8 km/h 92 % 0.00 in /  0 mm 0 W/m2
07:21 41.9 °F /  5.5 °C 39.7 °F /  4.3 °C 30.02 in /  1016.5 hPa NNW 1.0 mph /  1.6 km/h 3.0 mph /  4.8 km/h 92 % 0.00 in /  0 mm 0 W/m2
07:26 41.9 °F /  5.5 °C 40.0 °F /  4.4 °C 30.02 in /  1016.5 hPa NNW 2.0 mph /  3.2 km/h 5.0 mph /  8 km/h 93 % 0.00 in /  0 mm 0 W/m2
07:43 41.9 °F /  5.5 °C 40.0 °F /  4.4 °C 30.03 in /  1016.8 hPa Calm   1.0 mph /  1.6 km/h 93 % 0.00 in /  0 mm 0 W/m2
07:48 41.9 °F /  5.5 °C 40.0 °F /  4.4 °C 30.03 in /  1016.8 hPa NW 1.0 mph /  1.6 km/h 2.0 mph /  3.2 km/h 93 % 0.00 in /  0 mm 0 W/m2
07:54 41.9 °F /  5.5 °C 40.0 °F /  4.4 °C 30.03 in /  1016.8 hPa Calm   2.0 mph /  3.2 km/h 93 % 0.00 in /  0 mm 0 W/m2
07:59 41.9 °F /  5.5 °C 40.0 °F /  4.4 °C 30.04 in /  1017.2 hPa NW 1.0 mph /  1.6 km/h 3.0 mph /  4.8 km/h 93 % 0.00 in /  0 mm 0 W/m2
08:08 41.9 °F /  5.5 °C 40.0 °F /  4.4 °C 30.05 in /  1017.5 hPa NW 1.0 mph /  1.6 km/h 2.0 mph /  3.2 km/h 93 % 0.00 in /  0 mm 0 W/m2
08:14 41.9 °F /  5.5 °C 40.0 °F /  4.4 °C 30.05 in /  1017.5 hPa WNW 1.0 mph /  1.6 km/h 4.0 mph /  6.4 km/h 93 % 0.00 in /  0 mm 0 W/m2
08:21 42.1 °F /  5.6 °C 40.2 °F /  4.6 °C 30.05 in /  1017.5 hPa NW 3.0 mph /  4.8 km/h 5.0 mph /  8 km/h 93 % 0.00 in /  0 mm 0 W/m2
08:31 42.1 °F /  5.6 °C 40.2 °F /  4.6 °C 30.05 in /  1017.5 hPa NW 3.0 mph /  4.8 km/h 7.0 mph /  11.3 km/h 93 % 0.00 in /  0 mm 0 W/m2
08:37 41.9 °F /  5.5 °C 40.0 °F /  4.4 °C 30.05 in /  1017.5 hPa NW 2.0 mph /  3.2 km/h 5.0 mph /  8 km/h 93 % 0.00 in /  0 mm 0 W/m2
08:42 41.9 °F /  5.5 °C 40.0 °F /  4.4 °C 30.06 in /  1017.8 hPa NW 4.0 mph /  6.4 km/h 7.0 mph /  11.3 km/h 93 % 0.00 in /  0 mm 5 W/m2
08:51 42.1 °F /  5.6 °C 40.2 °F /  4.6 °C 30.06 in /  1017.8 hPa WNW 2.0 mph /  3.2 km/h 5.0 mph /  8 km/h 93 % 0.00 in /  0 mm 7 W/m2
08:56 41.9 °F /  5.5 °C 40.0 °F /  4.4 °C 30.07 in /  1018.2 hPa NW 3.0 mph /  4.8 km/h 6.0 mph /  9.7 km/h 93 % 0.00 in /  0 mm 11 W/m2
09:02 41.9 °F /  5.5 °C 40.0 °F /  4.4 °C 30.07 in /  1018.2 hPa NW 5.0 mph /  8 km/h 10.0 mph /  16.1 km/h 93 % 0.00 in /  0 mm 12 W/m2
09:24 41.9 °F /  5.5 °C 39.7 °F /  4.3 °C 30.07 in /  1018.2 hPa NW 5.0 mph /  8 km/h 10.0 mph /  16.1 km/h 92 % 0.00 in /  0 mm 37 W/m2
09:41 42.3 °F /  5.7 °C 39.8 °F /  4.3 °C 30.08 in /  1018.5 hPa WNW 5.0 mph /  8 km/h 9.0 mph /  14.5 km/h 91 % 0.00 in /  0 mm 51 W/m2
09:47 42.4 °F /  5.8 °C 40.0 °F /  4.4 °C 30.08 in /  1018.5 hPa WNW 5.0 mph /  8 km/h 8.0 mph /  12.9 km/h 91 % 0.00 in /  0 mm 51 W/m2
09:59 42.8 °F /  6 °C 40.1 °F /  4.5 °C 30.09 in /  1018.8 hPa WNW 6.0 mph /  9.7 km/h 9.0 mph /  14.5 km/h 90 % 0.00 in /  0 mm 51 W/m2
10:07 43.0 °F /  6.1 °C 40.2 °F /  4.6 °C 30.09 in /  1018.8 hPa NW 7.0 mph /  11.3 km/h 10.0 mph /  16.1 km/h 90 % 0.00 in /  0 mm 47 W/m2
10:15 43.0 °F /  6.1 °C 40.0 °F /  4.4 °C 30.10 in /  1019.2 hPa NW 6.0 mph /  9.7 km/h 9.0 mph /  14.5 km/h 89 % 0.00 in /  0 mm 53 W/m2
10:24 43.2 °F /  6.2 °C 39.8 °F /  4.3 °C 30.10 in /  1019.2 hPa NW 6.0 mph /  9.7 km/h 9.0 mph /  14.5 km/h 88 % 0.00 in /  0 mm 56 W/m2
10:38 43.3 °F /  6.3 °C 39.7 °F /  4.3 °C 30.11 in /  1019.5 hPa NW 6.0 mph /  9.7 km/h 11.0 mph /  17.7 km/h 87 % 0.00 in /  0 mm 49 W/m2
10:44 43.3 °F /  6.3 °C 39.7 °F /  4.3 °C 30.11 in /  1019.5 hPa NW 7.0 mph /  11.3 km/h 12.0 mph /  19.3 km/h 87 % 0.00 in /  0 mm 53 W/m2
10:55 43.5 °F /  6.4 °C 39.6 °F /  4.2 °C 30.12 in /  1019.9 hPa NW 8.0 mph /  12.9 km/h 11.0 mph /  17.7 km/h 86 % 0.00 in /  0 mm 62 W/m2
11:04 43.5 °F /  6.4 °C 39.6 °F /  4.2 °C 30.12 in /  1019.9 hPa NW 7.0 mph /  11.3 km/h 10.0 mph /  16.1 km/h 86 % 0.00 in /  0 mm 79 W/m2
11:11 43.9 °F /  6.6 °C 40.0 °F /  4.4 °C 30.12 in /  1019.9 hPa NW 6.0 mph /  9.7 km/h 11.0 mph /  17.7 km/h 86 % 0.00 in /  0 mm 77 W/m2
11:30 43.9 °F /  6.6 °C 39.7 °F /  4.3 °C 30.12 in /  1019.9 hPa NW 7.0 mph /  11.3 km/h 11.0 mph /  17.7 km/h 85 % 0.00 in /  0 mm 54 W/m2
11:45 44.1 °F /  6.7 °C 39.8 °F /  4.3 °C 30.12 in /  1019.9 hPa NNW 7.0 mph /  11.3 km/h 10.0 mph /  16.1 km/h 85 % 0.00 in /  0 mm 58 W/m2
11:52 44.1 °F /  6.7 °C 40.1 °F /  4.5 °C 30.11 in /  1019.5 hPa NW 7.0 mph /  11.3 km/h 11.0 mph /  17.7 km/h 86 % 0.00 in /  0 mm 46 W/m2
11:59 44.1 °F /  6.7 °C 40.1 °F /  4.5 °C 30.11 in /  1019.5 hPa NNW 6.0 mph /  9.7 km/h 9.0 mph /  14.5 km/h 86 % 0.00 in /  0 mm 76 W/m2
12:10 44.2 °F /  6.8 °C 40.3 °F /  4.6 °C 30.12 in /  1019.9 hPa NW 7.0 mph /  11.3 km/h 10.0 mph /  16.1 km/h 86 % 0.00 in /  0 mm 86 W/m2
12:19 44.4 °F /  6.9 °C 40.5 °F /  4.7 °C 30.12 in /  1019.9 hPa North 3.0 mph /  4.8 km/h 8.0 mph /  12.9 km/h 86 % 0.00 in /  0 mm 114 W/m2
12:27 44.8 °F /  7.1 °C 40.8 °F /  4.9 °C 30.12 in /  1019.9 hPa NNW 4.0 mph /  6.4 km/h 9.0 mph /  14.5 km/h 86 % 0.00 in /  0 mm 146 W/m2
12:33 44.8 °F /  7.1 °C 40.5 °F /  4.7 °C 30.13 in /  1020.2 hPa North 5.0 mph /  8 km/h 9.0 mph /  14.5 km/h 85 % 0.00 in /  0 mm 120 W/m2
12:48 44.8 °F /  7.1 °C 40.5 °F /  4.7 °C 30.13 in /  1020.2 hPa NW 5.0 mph /  8 km/h 9.0 mph /  14.5 km/h 85 % 0.00 in /  0 mm 111 W/m2
12:55 44.8 °F /  7.1 °C 40.8 °F /  4.9 °C 30.13 in /  1020.2 hPa NW 3.0 mph /  4.8 km/h 8.0 mph /  12.9 km/h 86 % 0.00 in /  0 mm 125 W/m2
13:00 45.0 °F /  7.2 °C 41.0 °F /  5 °C 30.13 in /  1020.2 hPa NW 3.0 mph /  4.8 km/h 6.0 mph /  9.7 km/h 86 % 0.00 in /  0 mm 105 W/m2
13:11 45.1 °F /  7.3 °C 40.9 °F /  4.9 °C 30.13 in /  1020.2 hPa NNW 4.0 mph /  6.4 km/h 8.0 mph /  12.9 km/h 85 % 0.00 in /  0 mm 109 W/m2
13:17 45.1 °F /  7.3 °C 40.9 °F /  4.9 °C 30.14 in /  1020.5 hPa NNW 3.0 mph /  4.8 km/h 7.0 mph /  11.3 km/h 85 % 0.00 in /  0 mm 153 W/m2
13:26 45.3 °F /  7.4 °C 41.4 °F /  5.2 °C 30.13 in /  1020.2 hPa NW 2.0 mph /  3.2 km/h 7.0 mph /  11.3 km/h 86 % 0.00 in /  0 mm 267 W/m2
13:33 45.5 °F /  7.5 °C 41.3 °F /  5.2 °C 30.14 in /  1020.5 hPa North 2.0 mph /  3.2 km/h 4.0 mph /  6.4 km/h 85 % 0.00 in /  0 mm 137 W/m2
13:42 45.7 °F /  7.6 °C 41.4 °F /  5.2 °C 30.14 in /  1020.5 hPa North 4.0 mph /  6.4 km/h 6.0 mph /  9.7 km/h 85 % 0.00 in /  0 mm 156 W/m2
13:49 45.7 °F /  7.6 °C 41.4 °F /  5.2 °C 30.14 in /  1020.5 hPa North 2.0 mph /  3.2 km/h 5.0 mph /  8 km/h 85 % 0.00 in /  0 mm 107 W/m2
13:58 45.7 °F /  7.6 °C 41.4 °F /  5.2 °C 30.14 in /  1020.5 hPa NNW 1.0 mph /  1.6 km/h 5.0 mph /  8 km/h 85 % 0.00 in /  0 mm 93 W/m2
14:04 45.5 °F /  7.5 °C 41.6 °F /  5.3 °C 30.14 in /  1020.5 hPa North 2.0 mph /  3.2 km/h 5.0 mph /  8 km/h 86 % 0.00 in /  0 mm 86 W/m2
14:11 45.3 °F /  7.4 °C 41.4 °F /  5.2 °C 30.15 in /  1020.9 hPa North 2.0 mph /  3.2 km/h 5.0 mph /  8 km/h 86 % 0.00 in /  0 mm 63 W/m2
14:25 45.1 °F /  7.3 °C 41.5 °F /  5.3 °C 30.16 in /  1021.2 hPa NW 4.0 mph /  6.4 km/h 7.0 mph /  11.3 km/h 87 % 0.00 in /  0 mm 40 W/m2
14:33 45.1 °F /  7.3 °C 41.5 °F /  5.3 °C 30.16 in /  1021.2 hPa NNW 4.0 mph /  6.4 km/h 7.0 mph /  11.3 km/h 87 % 0.00 in /  0 mm 32 W/m2
14:47 45.0 °F /  7.2 °C 41.3 °F /  5.2 °C 30.17 in /  1021.6 hPa NW 3.0 mph /  4.8 km/h 7.0 mph /  11.3 km/h 87 % 0.00 in /  0 mm 11 W/m2
14:53 45.0 °F /  7.2 °C 41.6 °F /  5.3 °C 30.17 in /  1021.6 hPa NW 5.0 mph /  8 km/h 8.0 mph /  12.9 km/h 88 % 0.00 in /  0 mm 12 W/m2
15:05 44.8 °F /  7.1 °C 41.4 °F /  5.2 °C 30.18 in /  1021.9 hPa NW 5.0 mph /  8 km/h 7.0 mph /  11.3 km/h 88 % 0.00 in /  0 mm 7 W/m2
15:10 44.8 °F /  7.1 °C 41.4 °F /  5.2 °C 30.18 in /  1021.9 hPa NW 2.0 mph /  3.2 km/h 5.0 mph /  8 km/h 88 % 0.00 in /  0 mm 5 W/m2
15:16 44.8 °F /  7.1 °C 41.7 °F /  5.4 °C 30.18 in /  1021.9 hPa WNW 2.0 mph /  3.2 km/h 7.0 mph /  11.3 km/h 89 % 0.00 in /  0 mm 5 W/m2
15:30 44.6 °F /  7 °C 41.8 °F /  5.4 °C 30.19 in /  1022.2 hPa WNW 2.0 mph /  3.2 km/h 6.0 mph /  9.7 km/h 90 % 0.00 in /  0 mm 0 W/m2
15:35 44.4 °F /  6.9 °C 41.7 °F /  5.4 °C 30.19 in /  1022.2 hPa NW 3.0 mph /  4.8 km/h 6.0 mph /  9.7 km/h 90 % 0.00 in /  0 mm 0 W/m2
15:42 44.4 °F /  6.9 °C 41.7 °F /  5.4 °C 30.19 in /  1022.2 hPa Calm   2.0 mph /  3.2 km/h 90 % 0.01 in /  0.25 mm 0 W/m2
15:46 44.2 °F /  6.8 °C 41.8 °F /  5.4 °C 30.19 in /  1022.2 hPa NW 2.0 mph /  3.2 km/h 4.0 mph /  6.4 km/h 91 % 0.01 in /  0.25 mm 0 W/m2
16:10 44.1 °F /  6.7 °C 41.9 °F /  5.5 °C 30.21 in /  1022.9 hPa NW 5.0 mph /  8 km/h 8.0 mph /  12.9 km/h 92 % 0.01 in /  0.25 mm 0 W/m2
16:21 44.1 °F /  6.7 °C 41.9 °F /  5.5 °C 30.21 in /  1022.9 hPa NW 3.0 mph /  4.8 km/h 5.0 mph /  8 km/h 92 % 0.01 in /  0.25 mm 0 W/m2
16:27 44.1 °F /  6.7 °C 42.2 °F /  5.7 °C 30.22 in /  1023.2 hPa NW 2.0 mph /  3.2 km/h 5.0 mph /  8 km/h 93 % 0.01 in /  0.25 mm 0 W/m2
16:32 44.1 °F /  6.7 °C 42.2 °F /  5.7 °C 30.22 in /  1023.2 hPa WNW 3.0 mph /  4.8 km/h 6.0 mph /  9.7 km/h 93 % 0.01 in /  0.25 mm 0 W/m2
16:45 43.9 °F /  6.6 °C 42.0 °F /  5.6 °C 30.22 in /  1023.2 hPa NW 2.0 mph /  3.2 km/h 5.0 mph /  8 km/h 93 % 0.00 in /  0 mm 0 W/m2
16:51 43.9 °F /  6.6 °C 42.0 °F /  5.6 °C 30.23 in /  1023.6 hPa NW 3.0 mph /  4.8 km/h 8.0 mph /  12.9 km/h 93 % 0.00 in /  0 mm 0 W/m2
16:56 43.9 °F /  6.6 °C 42.0 °F /  5.6 °C 30.23 in /  1023.6 hPa NW 3.0 mph /  4.8 km/h 7.0 mph /  11.3 km/h 93 % 0.00 in /  0 mm 0 W/m2
17:02 43.9 °F /  6.6 °C 42.0 °F /  5.6 °C 30.23 in /  1023.6 hPa NW 3.0 mph /  4.8 km/h 8.0 mph /  12.9 km/h 93 % 0.00 in /  0 mm 0 W/m2
17:09 43.9 °F /  6.6 °C 42.0 °F /  5.6 °C 30.23 in /  1023.6 hPa NNW 1.0 mph /  1.6 km/h 5.0 mph /  8 km/h 93 % 0.00 in /  0 mm 0 W/m2
17:18 43.7 °F /  6.5 °C 42.1 °F /  5.6 °C 30.23 in /  1023.6 hPa NW 3.0 mph /  4.8 km/h 5.0 mph /  8 km/h 94 % 0.00 in /  0 mm 0 W/m2
17:23 43.7 °F /  6.5 °C 42.1 °F /  5.6 °C 30.23 in /  1023.6 hPa NW 1.0 mph /  1.6 km/h 5.0 mph /  8 km/h 94 % 0.00 in /  0 mm 0 W/m2
17:28 43.7 °F /  6.5 °C 42.1 °F /  5.6 °C 30.23 in /  1023.6 hPa NW 3.0 mph /  4.8 km/h 5.0 mph /  8 km/h 94 % 0.00 in /  0 mm 0 W/m2
17:34 43.7 °F /  6.5 °C 42.1 °F /  5.6 °C 30.24 in /  1023.9 hPa NW 4.0 mph /  6.4 km/h 6.0 mph /  9.7 km/h 94 % 0.00 in /  0 mm 0 W/m2
17:39 43.7 °F /  6.5 °C 42.1 °F /  5.6 °C 30.24 in /  1023.9 hPa NNW 1.0 mph /  1.6 km/h 2.0 mph /  3.2 km/h 94 % 0.00 in /  0 mm 0 W/m2
17:50 43.9 °F /  6.6 °C 42.3 °F /  5.7 °C 30.24 in /  1023.9 hPa NNW 1.0 mph /  1.6 km/h 5.0 mph /  8 km/h 94 % 0.00 in /  0 mm 0 W/m2
17:58 43.9 °F /  6.6 °C 42.3 °F /  5.7 °C 30.24 in /  1023.9 hPa North 1.0 mph /  1.6 km/h 6.0 mph /  9.7 km/h 94 % 0.00 in /  0 mm 0 W/m2
18:03 43.9 °F /  6.6 °C 42.3 °F /  5.7 °C 30.24 in /  1023.9 hPa Calm   4.0 mph /  6.4 km/h 94 % 0.00 in /  0 mm 0 W/m2
18:18 43.7 °F /  6.5 °C 42.1 °F /  5.6 °C 30.24 in /  1023.9 hPa Calm   1.0 mph /  1.6 km/h 94 % 0.00 in /  0 mm 0 W/m2
18:23 43.7 °F /  6.5 °C 41.8 °F /  5.4 °C 30.24 in /  1023.9 hPa Calm   1.0 mph /  1.6 km/h 93 % 0.00 in /  0 mm 0 W/m2
18:38 43.7 °F /  6.5 °C 41.8 °F /  5.4 °C 30.24 in /  1023.9 hPa NNE 1.0 mph /  1.6 km/h 4.0 mph /  6.4 km/h 93 % 0.00 in /  0 mm 0 W/m2
18:47 43.9 °F /  6.6 °C 42.3 °F /  5.7 °C 30.24 in /  1023.9 hPa Calm   2.0 mph /  3.2 km/h 94 % 0.00 in /  0 mm 0 W/m2
18:52 43.9 °F /  6.6 °C 42.3 °F /  5.7 °C 30.24 in /  1023.9 hPa NNE 1.0 mph /  1.6 km/h 3.0 mph /  4.8 km/h 94 % 0.00 in /  0 mm 0 W/m2
19:03 43.9 °F /  6.6 °C 42.3 °F /  5.7 °C 30.25 in /  1024.3 hPa North 2.0 mph /  3.2 km/h 6.0 mph /  9.7 km/h 94 % 0.00 in /  0 mm 0 W/m2
19:28 43.9 °F /  6.6 °C 42.3 °F /  5.7 °C 30.26 in /  1024.6 hPa NE 1.0 mph /  1.6 km/h 5.0 mph /  8 km/h 94 % 0.00 in /  0 mm 0 W/m2
19:35 43.9 °F /  6.6 °C 42.3 °F /  5.7 °C 30.26 in /  1024.6 hPa Calm   2.0 mph /  3.2 km/h 94 % 0.00 in /  0 mm 0 W/m2
19:45 43.9 °F /  6.6 °C 42.3 °F /  5.7 °C 30.27 in /  1024.9 hPa Calm   1.0 mph /  1.6 km/h 94 % 0.00 in /  0 mm 0 W/m2
20:02 43.9 °F /  6.6 °C 42.5 °F /  5.8 °C 30.27 in /  1024.9 hPa North 1.0 mph /  1.6 km/h 4.0 mph /  6.4 km/h 95 % 0.00 in /  0 mm 0 W/m2
20:07 43.9 °F /  6.6 °C 42.5 °F /  5.8 °C 30.27 in /  1024.9 hPa North 3.0 mph /  4.8 km/h 7.0 mph /  11.3 km/h 95 % 0.00 in /  0 mm 0 W/m2
20:12 43.9 °F /  6.6 °C 42.5 °F /  5.8 °C 30.28 in /  1025.3 hPa Calm   1.0 mph /  1.6 km/h 95 % 0.00 in /  0 mm 0 W/m2
20:18 43.9 °F /  6.6 °C 42.5 °F /  5.8 °C 30.27 in /  1024.9 hPa Calm   2.0 mph /  3.2 km/h 95 % 0.00 in /  0 mm 0 W/m2
20:23 43.9 °F /  6.6 °C 42.5 °F /  5.8 °C 30.28 in /  1025.3 hPa Calm   2.0 mph /  3.2 km/h 95 % 0.00 in /  0 mm 0 W/m2
20:30 43.9 °F /  6.6 °C 42.5 °F /  5.8 °C 30.28 in /  1025.3 hPa Calm   1.0 mph /  1.6 km/h 95 % 0.00 in /  0 mm 0 W/m2
20:40 43.9 °F /  6.6 °C 42.5 °F /  5.8 °C 30.28 in /  1025.3 hPa Calm   1.0 mph /  1.6 km/h 95 % 0.00 in /  0 mm 0 W/m2
20:57 43.7 °F /  6.5 °C 42.4 °F /  5.8 °C 30.28 in /  1025.3 hPa Calm   1.0 mph /  1.6 km/h 95 % 0.00 in /  0 mm 0 W/m2
21:05 43.7 °F /  6.5 °C 42.4 °F /  5.8 °C 30.29 in /  1025.6 hPa Calm   2.0 mph /  3.2 km/h 95 % 0.00 in /  0 mm 0 W/m2
21:15 43.7 °F /  6.5 °C 42.4 °F /  5.8 °C 30.29 in /  1025.6 hPa Calm   1.0 mph /  1.6 km/h 95 % 0.00 in /  0 mm 0 W/m2
21:23 43.9 °F /  6.6 °C 42.5 °F /  5.8 °C 30.30 in /  1026 hPa NNW 4.0 mph /  6.4 km/h 7.0 mph /  11.3 km/h 95 % 0.00 in /  0 mm 0 W/m2
21:28 43.9 °F /  6.6 °C 42.5 °F /  5.8 °C 30.30 in /  1026 hPa NNW 1.0 mph /  1.6 km/h 4.0 mph /  6.4 km/h 95 % 0.00 in /  0 mm 0 W/m2
21:37 43.7 °F /  6.5 °C 42.4 °F /  5.8 °C 30.30 in /  1026 hPa Calm     95 % 0.00 in /  0 mm 0 W/m2
21:54 43.5 °F /  6.4 °C 42.2 °F /  5.7 °C 30.30 in /  1026 hPa Calm     95 % 0.00 in /  0 mm 0 W/m2
21:59 43.3 °F /  6.3 °C 42.0 °F /  5.6 °C 30.31 in /  1026.3 hPa Calm     95 % 0.00 in /  0 mm 0 W/m2
22:00 43.3 °F /  6.3 °C 42.0 °F /  5.6 °C 30.31 in /  1026.3 hPa Calm     95 % 0.00 in /  0 mm 0 W/m2
22:05 43.3 °F /  6.3 °C 42.0 °F /  5.6 °C 30.31 in /  1026.3 hPa Calm   2.0 mph /  3.2 km/h 95 % 0.00 in /  0 mm 0 W/m2
22:12 43.3 °F /  6.3 °C 42.0 °F /  5.6 °C 30.31 in /  1026.3 hPa Calm   2.0 mph /  3.2 km/h 95 % 0.00 in /  0 mm 0 W/m2
22:20 43.3 °F /  6.3 °C 42.0 °F /  5.6 °C 30.31 in /  1026.3 hPa NNW 1.0 mph /  1.6 km/h 5.0 mph /  8 km/h 95 % 0.00 in /  0 mm 0 W/m2
22:33 43.2 °F /  6.2 °C 41.8 °F /  5.4 °C 30.30 in /  1026 hPa Calm   2.0 mph /  3.2 km/h 95 % 0.00 in /  0 mm 0 W/m2
22:34 43.2 °F /  6.2 °C 41.8 °F /  5.4 °C 30.31 in /  1026.3 hPa Calm   2.0 mph /  3.2 km/h 95 % 0.00 in /  0 mm 0 W/m2
22:46 43.2 °F /  6.2 °C 41.8 °F /  5.4 °C 30.30 in /  1026 hPa Calm   1.0 mph /  1.6 km/h 95 % 0.00 in /  0 mm 0 W/m2
22:54 43.3 °F /  6.3 °C 42.3 °F /  5.7 °C 30.30 in /  1026 hPa Calm     96 % 0.00 in /  0 mm 0 W/m2
22:59 43.3 °F /  6.3 °C 42.3 °F /  5.7 °C 30.30 in /  1026 hPa Calm     96 % 0.00 in /  0 mm 0 W/m2
23:03 43.3 °F /  6.3 °C 42.3 °F /  5.7 °C 30.30 in /  1026 hPa Calm     96 % 0.00 in /  0 mm 0 W/m2
23:16 43.3 °F /  6.3 °C 42.3 °F /  5.7 °C 30.30 in /  1026 hPa Calm     96 % 0.00 in /  0 mm 0 W/m2
23:21 43.3 °F /  6.3 °C 42.3 °F /  5.7 °C 30.30 in /  1026 hPa Calm   2.0 mph /  3.2 km/h 96 % 0.00 in /  0 mm 0 W/m2
23:28 43.3 °F /  6.3 °C 42.3 °F /  5.7 °C 30.30 in /  1026 hPa Calm     96 % 0.00 in /  0 mm 0 W/m2
23:36 43.3 °F /  6.3 °C 42.3 °F /  5.7 °C 30.31 in /  1026.3 hPa Calm     96 % 0.00 in /  0 mm 0 W/m2
23:41 43.3 °F /  6.3 °C 42.3 °F /  5.7 °C 30.30 in /  1026 hPa Calm     96 % 0.00 in /  0 mm 0 W/m2
23:44 43.3 °F /  6.3 °C 42.3 °F /  5.7 °C 30.31 in /  1026.3 hPa Calm     96 % 0.00 in /  0 mm 0 W/m2
23:49 43.3 °F /  6.3 °C 42.3 °F /  5.7 °C 30.31 in /  1026.3 hPa Calm     96 % 0.00 in /  0 mm 0 W/m2
23:54 43.3 °F /  6.3 °C 42.3 °F /  5.7 °C 30.31 in /  1026.3 hPa Calm     96 % 0.00 in /  0 mm 0 W/m2
Delerius-Weather
Compliments of Weather Underground - 1.75 mb

Data updates at regular intervals.